sensor_id;sensor_type;location;lat;lon;timestamp;P1;durP1;ratioP1;P2;durP2;ratioP2
70549;SDS011;58101;48.658;2.328;2024-01-15T00:01:16;33.15;;;11.77;;
70549;SDS011;58101;48.658;2.328;2024-01-15T00:03:42;37.50;;;11.43;;
70549;SDS011;58101;48.658;2.328;2024-01-15T00:06:08;33.10;;;11.20;;
70549;SDS011;58101;48.658;2.328;2024-01-15T00:08:34;39.70;;;10.75;;
70549;SDS011;58101;48.658;2.328;2024-01-15T00:10:59;34.22;;;10.80;;
70549;SDS011;58101;48.658;2.328;2024-01-15T00:13:25;34.42;;;11.07;;
70549;SDS011;58101;48.658;2.328;2024-01-15T00:15:51;32.85;;;10.43;;
70549;SDS011;58101;48.658;2.328;2024-01-15T00:18:16;37.95;;;11.25;;
70549;SDS011;58101;48.658;2.328;2024-01-15T00:20:42;34.47;;;10.38;;
70549;SDS011;58101;48.658;2.328;2024-01-15T00:23:07;31.67;;;10.82;;
70549;SDS011;58101;48.658;2.328;2024-01-15T00:25:33;34.70;;;10.63;;
70549;SDS011;58101;48.658;2.328;2024-01-15T00:27:59;29.05;;;10.20;;
70549;SDS011;58101;48.658;2.328;2024-01-15T00:30:24;28.17;;;9.30;;
70549;SDS011;58101;48.658;2.328;2024-01-15T00:32:50;34.08;;;10.00;;
70549;SDS011;58101;48.658;2.328;2024-01-15T00:35:15;34.72;;;10.90;;
70549;SDS011;58101;48.658;2.328;2024-01-15T00:37:41;43.88;;;11.10;;
70549;SDS011;58101;48.658;2.328;2024-01-15T00:40:07;40.00;;;11.57;;
70549;SDS011;58101;48.658;2.328;2024-01-15T00:42:33;30.92;;;10.27;;
70549;SDS011;58101;48.658;2.328;2024-01-15T00:44:59;37.15;;;10.70;;
70549;SDS011;58101;48.658;2.328;2024-01-15T00:47:25;34.35;;;10.48;;
70549;SDS011;58101;48.658;2.328;2024-01-15T00:49:50;33.30;;;9.95;;
70549;SDS011;58101;48.658;2.328;2024-01-15T00:52:16;34.20;;;10.48;;
70549;SDS011;58101;48.658;2.328;2024-01-15T00:54:41;34.40;;;11.48;;
70549;SDS011;58101;48.658;2.328;2024-01-15T00:57:07;40.17;;;12.23;;
70549;SDS011;58101;48.658;2.328;2024-01-15T00:59:32;41.28;;;11.00;;
70549;SDS011;58101;48.658;2.328;2024-01-15T01:01:58;41.25;;;12.73;;
70549;SDS011;58101;48.658;2.328;2024-01-15T01:04:24;34.30;;;11.60;;
70549;SDS011;58101;48.658;2.328;2024-01-15T01:06:49;36.90;;;11.70;;
70549;SDS011;58101;48.658;2.328;2024-01-15T01:09:15;42.15;;;12.55;;
70549;SDS011;58101;48.658;2.328;2024-01-15T01:11:41;39.63;;;11.48;;
70549;SDS011;58101;48.658;2.328;2024-01-15T01:14:06;38.28;;;10.75;;
70549;SDS011;58101;48.658;2.328;2024-01-15T01:16:32;32.13;;;10.85;;
70549;SDS011;58101;48.658;2.328;2024-01-15T01:19:03;30.77;;;10.25;;
70549;SDS011;58101;48.658;2.328;2024-01-15T01:21:32;33.60;;;9.45;;
70549;SDS011;58101;48.658;2.328;2024-01-15T01:23:58;32.97;;;9.95;;
70549;SDS011;58101;48.658;2.328;2024-01-15T01:26:24;37.38;;;10.02;;
70549;SDS011;58101;48.658;2.328;2024-01-15T01:28:49;33.28;;;10.55;;
70549;SDS011;58101;48.658;2.328;2024-01-15T01:31:15;31.23;;;9.38;;
70549;SDS011;58101;48.658;2.328;2024-01-15T01:33:41;36.33;;;10.90;;
70549;SDS011;58101;48.658;2.328;2024-01-15T01:36:07;38.97;;;10.60;;
70549;SDS011;58101;48.658;2.328;2024-01-15T01:38:34;32.72;;;10.20;;
70549;SDS011;58101;48.658;2.328;2024-01-15T01:41:00;32.15;;;9.32;;
70549;SDS011;58101;48.658;2.328;2024-01-15T01:43:26;29.33;;;9.10;;
70549;SDS011;58101;48.658;2.328;2024-01-15T01:45:52;31.38;;;9.63;;
70549;SDS011;58101;48.658;2.328;2024-01-15T01:48:20;26.23;;;8.73;;
70549;SDS011;58101;48.658;2.328;2024-01-15T01:50:46;32.60;;;8.75;;
70549;SDS011;58101;48.658;2.328;2024-01-15T01:53:12;29.23;;;8.48;;
70549;SDS011;58101;48.658;2.328;2024-01-15T01:55:38;33.00;;;9.30;;
70549;SDS011;58101;48.658;2.328;2024-01-15T01:58:04;27.27;;;8.75;;
70549;SDS011;58101;48.658;2.328;2024-01-15T02:00:30;28.25;;;9.15;;
70549;SDS011;58101;48.658;2.328;2024-01-15T02:02:57;31.80;;;10.13;;
70549;SDS011;58101;48.658;2.328;2024-01-15T02:05:23;31.55;;;9.10;;
70549;SDS011;58101;48.658;2.328;2024-01-15T02:07:48;28.48;;;9.48;;
70549;SDS011;58101;48.658;2.328;2024-01-15T02:10:14;29.65;;;9.00;;
70549;SDS011;58101;48.658;2.328;2024-01-15T02:12:39;27.38;;;8.38;;
70549;SDS011;58101;48.658;2.328;2024-01-15T02:15:05;28.75;;;8.63;;
70549;SDS011;58101;48.658;2.328;2024-01-15T02:17:31;32.88;;;9.30;;
70549;SDS011;58101;48.658;2.328;2024-01-15T02:19:57;28.77;;;8.98;;
70549;SDS011;58101;48.658;2.328;2024-01-15T02:22:22;26.50;;;8.38;;
70549;SDS011;58101;48.658;2.328;2024-01-15T02:24:48;31.38;;;9.38;;
70549;SDS011;58101;48.658;2.328;2024-01-15T02:27:13;28.73;;;8.63;;
70549;SDS011;58101;48.658;2.328;2024-01-15T02:29:40;28.60;;;8.98;;
70549;SDS011;58101;48.658;2.328;2024-01-15T02:32:06;30.17;;;9.05;;
70549;SDS011;58101;48.658;2.328;2024-01-15T02:34:33;26.10;;;8.27;;
70549;SDS011;58101;48.658;2.328;2024-01-15T02:36:59;31.52;;;9.93;;
70549;SDS011;58101;48.658;2.328;2024-01-15T02:39:24;24.60;;;8.70;;
70549;SDS011;58101;48.658;2.328;2024-01-15T02:41:50;25.50;;;8.68;;
70549;SDS011;58101;48.658;2.328;2024-01-15T02:44:16;28.00;;;8.55;;
70549;SDS011;58101;48.658;2.328;2024-01-15T02:46:41;29.65;;;9.25;;
70549;SDS011;58101;48.658;2.328;2024-01-15T02:49:07;25.17;;;8.05;;
70549;SDS011;58101;48.658;2.328;2024-01-15T02:51:32;28.73;;;8.98;;
70549;SDS011;58101;48.658;2.328;2024-01-15T02:53:58;25.60;;;8.30;;
70549;SDS011;58101;48.658;2.328;2024-01-15T02:56:24;27.40;;;8.50;;
70549;SDS011;58101;48.658;2.328;2024-01-15T02:58:49;29.50;;;9.10;;
70549;SDS011;58101;48.658;2.328;2024-01-15T03:01:15;27.08;;;8.60;;
70549;SDS011;58101;48.658;2.328;2024-01-15T03:03:44;24.45;;;8.45;;
70549;SDS011;58101;48.658;2.328;2024-01-15T03:06:09;29.88;;;8.68;;
70549;SDS011;58101;48.658;2.328;2024-01-15T03:08:35;29.90;;;9.57;;
70549;SDS011;58101;48.658;2.328;2024-01-15T03:11:01;28.92;;;8.40;;
70549;SDS011;58101;48.658;2.328;2024-01-15T03:13:26;31.27;;;10.45;;
70549;SDS011;58101;48.658;2.328;2024-01-15T03:15:52;26.27;;;8.48;;
70549;SDS011;58101;48.658;2.328;2024-01-15T03:18:18;27.85;;;8.95;;
70549;SDS011;58101;48.658;2.328;2024-01-15T03:20:43;29.77;;;9.43;;
70549;SDS011;58101;48.658;2.328;2024-01-15T03:23:09;32.05;;;8.63;;
70549;SDS011;58101;48.658;2.328;2024-01-15T03:25:34;30.35;;;9.63;;
70549;SDS011;58101;48.658;2.328;2024-01-15T03:28:00;29.85;;;8.63;;
70549;SDS011;58101;48.658;2.328;2024-01-15T03:30:26;25.98;;;7.95;;
70549;SDS011;58101;48.658;2.328;2024-01-15T03:32:51;26.70;;;7.68;;
70549;SDS011;58101;48.658;2.328;2024-01-15T03:35:17;25.27;;;8.43;;
70549;SDS011;58101;48.658;2.328;2024-01-15T03:37:42;24.45;;;7.65;;
70549;SDS011;58101;48.658;2.328;2024-01-15T03:40:08;27.50;;;7.97;;
70549;SDS011;58101;48.658;2.328;2024-01-15T03:42:34;27.55;;;8.40;;
70549;SDS011;58101;48.658;2.328;2024-01-15T03:45:00;28.52;;;8.63;;
70549;SDS011;58101;48.658;2.328;2024-01-15T03:47:26;30.92;;;8.93;;
70549;SDS011;58101;48.658;2.328;2024-01-15T03:49:51;24.13;;;8.18;;
70549;SDS011;58101;48.658;2.328;2024-01-15T03:52:17;20.85;;;7.47;;
70549;SDS011;58101;48.658;2.328;2024-01-15T03:54:42;22.55;;;6.90;;
70549;SDS011;58101;48.658;2.328;2024-01-15T03:57:08;23.15;;;8.10;;
70549;SDS011;58101;48.658;2.328;2024-01-15T03:59:33;24.10;;;7.45;;
70549;SDS011;58101;48.658;2.328;2024-01-15T04:01:59;23.85;;;7.60;;
70549;SDS011;58101;48.658;2.328;2024-01-15T04:04:25;22.85;;;7.97;;
70549;SDS011;58101;48.658;2.328;2024-01-15T04:06:51;25.58;;;7.97;;
70549;SDS011;58101;48.658;2.328;2024-01-15T04:09:16;22.20;;;7.80;;
70549;SDS011;58101;48.658;2.328;2024-01-15T04:11:42;24.60;;;7.88;;
70549;SDS011;58101;48.658;2.328;2024-01-15T04:14:08;25.80;;;7.53;;
70549;SDS011;58101;48.658;2.328;2024-01-15T04:16:33;24.30;;;8.38;;
70549;SDS011;58101;48.658;2.328;2024-01-15T04:18:59;28.80;;;8.55;;
70549;SDS011;58101;48.658;2.328;2024-01-15T04:21:24;24.25;;;7.57;;
70549;SDS011;58101;48.658;2.328;2024-01-15T04:23:50;24.85;;;9.18;;
70549;SDS011;58101;48.658;2.328;2024-01-15T04:26:16;25.33;;;8.38;;
70549;SDS011;58101;48.658;2.328;2024-01-15T04:28:41;26.45;;;8.80;;
70549;SDS011;58101;48.658;2.328;2024-01-15T04:31:07;24.92;;;8.15;;
70549;SDS011;58101;48.658;2.328;2024-01-15T04:33:32;30.15;;;8.48;;
70549;SDS011;58101;48.658;2.328;2024-01-15T04:36:01;23.50;;;7.50;;
70549;SDS011;58101;48.658;2.328;2024-01-15T04:38:28;24.77;;;7.93;;
70549;SDS011;58101;48.658;2.328;2024-01-15T04:40:53;22.15;;;7.95;;
70549;SDS011;58101;48.658;2.328;2024-01-15T04:43:19;23.95;;;7.50;;
70549;SDS011;58101;48.658;2.328;2024-01-15T04:45:45;20.80;;;7.82;;
70549;SDS011;58101;48.658;2.328;2024-01-15T04:48:10;23.17;;;7.78;;
70549;SDS011;58101;48.658;2.328;2024-01-15T04:50:36;20.00;;;7.40;;
70549;SDS011;58101;48.658;2.328;2024-01-15T04:53:01;22.98;;;8.00;;
70549;SDS011;58101;48.658;2.328;2024-01-15T04:55:27;30.73;;;9.23;;
70549;SDS011;58101;48.658;2.328;2024-01-15T04:57:52;31.08;;;9.25;;
70549;SDS011;58101;48.658;2.328;2024-01-15T05:00:18;26.90;;;9.68;;
70549;SDS011;58101;48.658;2.328;2024-01-15T05:02:44;25.67;;;8.63;;
70549;SDS011;58101;48.658;2.328;2024-01-15T05:05:10;26.75;;;8.88;;
70549;SDS011;58101;48.658;2.328;2024-01-15T05:07:35;25.42;;;9.10;;
70549;SDS011;58101;48.658;2.328;2024-01-15T05:10:01;24.35;;;8.23;;
70549;SDS011;58101;48.658;2.328;2024-01-15T05:12:27;23.13;;;7.88;;
70549;SDS011;58101;48.658;2.328;2024-01-15T05:14:53;25.15;;;7.43;;
70549;SDS011;58101;48.658;2.328;2024-01-15T05:17:18;27.00;;;8.35;;
70549;SDS011;58101;48.658;2.328;2024-01-15T05:19:44;25.40;;;7.68;;
70549;SDS011;58101;48.658;2.328;2024-01-15T05:22:09;29.35;;;8.77;;
70549;SDS011;58101;48.658;2.328;2024-01-15T05:24:35;24.17;;;7.35;;
70549;SDS011;58101;48.658;2.328;2024-01-15T05:27:00;23.77;;;8.18;;
70549;SDS011;58101;48.658;2.328;2024-01-15T05:29:26;28.60;;;8.32;;
70549;SDS011;58101;48.658;2.328;2024-01-15T05:31:52;23.27;;;7.43;;
70549;SDS011;58101;48.658;2.328;2024-01-15T05:34:17;21.25;;;7.72;;
70549;SDS011;58101;48.658;2.328;2024-01-15T05:36:43;26.05;;;7.93;;
70549;SDS011;58101;48.658;2.328;2024-01-15T05:39:08;26.20;;;8.82;;
70549;SDS011;58101;48.658;2.328;2024-01-15T05:41:34;26.20;;;8.65;;
70549;SDS011;58101;48.658;2.328;2024-01-15T05:44:00;29.38;;;10.25;;
70549;SDS011;58101;48.658;2.328;2024-01-15T05:46:25;26.05;;;9.18;;
70549;SDS011;58101;48.658;2.328;2024-01-15T05:48:51;25.95;;;9.05;;
70549;SDS011;58101;48.658;2.328;2024-01-15T05:51:16;26.75;;;8.68;;
70549;SDS011;58101;48.658;2.328;2024-01-15T05:53:42;24.50;;;8.35;;
70549;SDS011;58101;48.658;2.328;2024-01-15T05:56:09;28.67;;;9.75;;
70549;SDS011;58101;48.658;2.328;2024-01-15T05:58:35;26.83;;;8.93;;
70549;SDS011;58101;48.658;2.328;2024-01-15T06:01:01;24.13;;;8.60;;
70549;SDS011;58101;48.658;2.328;2024-01-15T06:03:26;24.38;;;8.02;;
70549;SDS011;58101;48.658;2.328;2024-01-15T06:05:52;26.98;;;9.27;;
70549;SDS011;58101;48.658;2.328;2024-01-15T06:08:18;26.83;;;8.88;;
70549;SDS011;58101;48.658;2.328;2024-01-15T06:10:43;27.38;;;8.43;;
70549;SDS011;58101;48.658;2.328;2024-01-15T06:13:09;24.08;;;9.07;;
70549;SDS011;58101;48.658;2.328;2024-01-15T06:15:35;26.88;;;7.93;;
70549;SDS011;58101;48.658;2.328;2024-01-15T06:18:00;22.40;;;8.35;;
70549;SDS011;58101;48.658;2.328;2024-01-15T06:20:26;26.00;;;8.60;;
70549;SDS011;58101;48.658;2.328;2024-01-15T06:22:52;26.98;;;9.25;;
70549;SDS011;58101;48.658;2.328;2024-01-15T06:25:17;22.27;;;7.40;;
70549;SDS011;58101;48.658;2.328;2024-01-15T06:27:43;24.30;;;7.55;;
70549;SDS011;58101;48.658;2.328;2024-01-15T06:30:09;24.45;;;8.77;;
70549;SDS011;58101;48.658;2.328;2024-01-15T06:32:35;32.00;;;8.98;;
70549;SDS011;58101;48.658;2.328;2024-01-15T06:35:01;24.88;;;9.00;;
70549;SDS011;58101;48.658;2.328;2024-01-15T06:37:26;22.98;;;7.78;;
70549;SDS011;58101;48.658;2.328;2024-01-15T06:39:52;23.70;;;7.20;;
70549;SDS011;58101;48.658;2.328;2024-01-15T06:42:18;23.40;;;7.57;;
70549;SDS011;58101;48.658;2.328;2024-01-15T06:44:43;27.10;;;7.53;;
70549;SDS011;58101;48.658;2.328;2024-01-15T06:47:09;27.05;;;8.95;;
70549;SDS011;58101;48.658;2.328;2024-01-15T06:49:34;21.02;;;6.82;;
70549;SDS011;58101;48.658;2.328;2024-01-15T06:52:00;28.90;;;8.38;;
70549;SDS011;58101;48.658;2.328;2024-01-15T06:54:26;25.88;;;7.68;;
70549;SDS011;58101;48.658;2.328;2024-01-15T06:56:51;25.23;;;7.82;;
70549;SDS011;58101;48.658;2.328;2024-01-15T06:59:17;20.65;;;7.85;;
70549;SDS011;58101;48.658;2.328;2024-01-15T07:01:43;24.05;;;8.00;;
70549;SDS011;58101;48.658;2.328;2024-01-15T07:04:08;23.15;;;7.47;;
70549;SDS011;58101;48.658;2.328;2024-01-15T07:06:34;22.23;;;7.88;;
70549;SDS011;58101;48.658;2.328;2024-01-15T07:08:59;20.63;;;7.40;;
70549;SDS011;58101;48.658;2.328;2024-01-15T07:11:25;30.83;;;9.88;;
70549;SDS011;58101;48.658;2.328;2024-01-15T07:13:51;29.10;;;9.73;;
70549;SDS011;58101;48.658;2.328;2024-01-15T07:16:16;29.55;;;9.90;;
70549;SDS011;58101;48.658;2.328;2024-01-15T07:18:42;30.30;;;9.73;;
70549;SDS011;58101;48.658;2.328;2024-01-15T07:21:07;30.33;;;9.93;;
70549;SDS011;58101;48.658;2.328;2024-01-15T07:23:33;25.60;;;8.88;;
70549;SDS011;58101;48.658;2.328;2024-01-15T07:25:58;24.20;;;8.60;;
70549;SDS011;58101;48.658;2.328;2024-01-15T07:28:24;24.08;;;8.57;;
70549;SDS011;58101;48.658;2.328;2024-01-15T07:30:50;25.25;;;8.57;;
70549;SDS011;58101;48.658;2.328;2024-01-15T07:33:15;25.30;;;7.82;;
70549;SDS011;58101;48.658;2.328;2024-01-15T07:35:41;26.55;;;8.43;;
70549;SDS011;58101;48.658;2.328;2024-01-15T07:38:06;26.52;;;8.32;;
70549;SDS011;58101;48.658;2.328;2024-01-15T07:40:32;22.65;;;7.60;;
70549;SDS011;58101;48.658;2.328;2024-01-15T07:42:57;23.85;;;8.70;;
70549;SDS011;58101;48.658;2.328;2024-01-15T07:45:24;30.08;;;9.10;;
70549;SDS011;58101;48.658;2.328;2024-01-15T07:47:50;25.73;;;7.75;;
70549;SDS011;58101;48.658;2.328;2024-01-15T07:50:15;26.33;;;7.70;;
70549;SDS011;58101;48.658;2.328;2024-01-15T07:52:41;25.13;;;8.32;;
70549;SDS011;58101;48.658;2.328;2024-01-15T07:55:07;25.60;;;8.18;;
70549;SDS011;58101;48.658;2.328;2024-01-15T07:57:33;33.95;;;11.57;;
70549;SDS011;58101;48.658;2.328;2024-01-15T07:59:58;34.45;;;11.90;;
70549;SDS011;58101;48.658;2.328;2024-01-15T08:02:24;34.95;;;12.32;;
70549;SDS011;58101;48.658;2.328;2024-01-15T08:04:50;33.05;;;12.45;;
70549;SDS011;58101;48.658;2.328;2024-01-15T08:07:15;30.58;;;13.63;;
70549;SDS011;58101;48.658;2.328;2024-01-15T08:09:42;28.30;;;9.68;;
70549;SDS011;58101;48.658;2.328;2024-01-15T08:12:08;22.65;;;7.93;;
70549;SDS011;58101;48.658;2.328;2024-01-15T08:14:35;25.05;;;8.20;;
70549;SDS011;58101;48.658;2.328;2024-01-15T08:17:00;25.67;;;7.55;;
70549;SDS011;58101;48.658;2.328;2024-01-15T08:19:26;21.77;;;8.15;;
70549;SDS011;58101;48.658;2.328;2024-01-15T08:21:52;27.88;;;8.45;;
70549;SDS011;58101;48.658;2.328;2024-01-15T08:24:18;24.00;;;8.55;;
70549;SDS011;58101;48.658;2.328;2024-01-15T08:26:43;24.67;;;8.25;;
70549;SDS011;58101;48.658;2.328;2024-01-15T08:29:10;30.48;;;9.05;;
70549;SDS011;58101;48.658;2.328;2024-01-15T08:31:36;25.80;;;8.45;;
70549;SDS011;58101;48.658;2.328;2024-01-15T08:34:01;22.13;;;7.72;;
70549;SDS011;58101;48.658;2.328;2024-01-15T08:36:27;24.70;;;7.90;;
70549;SDS011;58101;48.658;2.328;2024-01-15T08:38:55;23.25;;;7.72;;
70549;SDS011;58101;48.658;2.328;2024-01-15T08:41:21;24.30;;;7.97;;
70549;SDS011;58101;48.658;2.328;2024-01-15T08:43:46;25.50;;;7.78;;
70549;SDS011;58101;48.658;2.328;2024-01-15T08:46:12;28.17;;;8.32;;
70549;SDS011;58101;48.658;2.328;2024-01-15T08:48:38;29.10;;;8.00;;
70549;SDS011;58101;48.658;2.328;2024-01-15T08:51:04;24.65;;;8.82;;
70549;SDS011;58101;48.658;2.328;2024-01-15T08:53:30;29.10;;;8.73;;
70549;SDS011;58101;48.658;2.328;2024-01-15T08:55:56;27.23;;;8.40;;
70549;SDS011;58101;48.658;2.328;2024-01-15T08:58:22;27.35;;;8.93;;
70549;SDS011;58101;48.658;2.328;2024-01-15T09:00:49;24.58;;;7.70;;
70549;SDS011;58101;48.658;2.328;2024-01-15T09:03:15;25.13;;;8.48;;
70549;SDS011;58101;48.658;2.328;2024-01-15T09:05:41;28.08;;;8.52;;
70549;SDS011;58101;48.658;2.328;2024-01-15T09:08:07;25.52;;;9.00;;
70549;SDS011;58101;48.658;2.328;2024-01-15T09:10:33;22.25;;;7.97;;
70549;SDS011;58101;48.658;2.328;2024-01-15T09:12:59;32.63;;;8.85;;
70549;SDS011;58101;48.658;2.328;2024-01-15T09:15:25;24.17;;;8.27;;
70549;SDS011;58101;48.658;2.328;2024-01-15T09:17:50;27.88;;;8.48;;
70549;SDS011;58101;48.658;2.328;2024-01-15T09:20:16;23.58;;;8.07;;
70549;SDS011;58101;48.658;2.328;2024-01-15T09:22:42;25.48;;;8.90;;
70549;SDS011;58101;48.658;2.328;2024-01-15T09:25:11;25.92;;;8.65;;
70549;SDS011;58101;48.658;2.328;2024-01-15T09:27:36;23.33;;;7.78;;
70549;SDS011;58101;48.658;2.328;2024-01-15T09:30:03;20.35;;;8.10;;
70549;SDS011;58101;48.658;2.328;2024-01-15T09:32:29;24.25;;;7.82;;
70549;SDS011;58101;48.658;2.328;2024-01-15T09:34:55;23.98;;;7.30;;
70549;SDS011;58101;48.658;2.328;2024-01-15T09:37:21;20.50;;;7.18;;
70549;SDS011;58101;48.658;2.328;2024-01-15T09:39:47;19.45;;;6.45;;
70549;SDS011;58101;48.658;2.328;2024-01-15T09:42:13;20.77;;;6.43;;
70549;SDS011;58101;48.658;2.328;2024-01-15T09:44:40;18.58;;;6.30;;
70549;SDS011;58101;48.658;2.328;2024-01-15T09:47:06;19.02;;;5.85;;
70549;SDS011;58101;48.658;2.328;2024-01-15T09:49:32;18.58;;;5.95;;
70549;SDS011;58101;48.658;2.328;2024-01-15T09:51:58;16.60;;;5.63;;
70549;SDS011;58101;48.658;2.328;2024-01-15T09:54:25;18.50;;;5.40;;
70549;SDS011;58101;48.658;2.328;2024-01-15T09:56:51;16.70;;;5.35;;
70549;SDS011;58101;48.658;2.328;2024-01-15T09:59:18;17.02;;;5.78;;
70549;SDS011;58101;48.658;2.328;2024-01-15T10:01:45;17.95;;;5.72;;
70549;SDS011;58101;48.658;2.328;2024-01-15T10:06:38;19.52;;;5.63;;
70549;SDS011;58101;48.658;2.328;2024-01-15T10:09:08;18.20;;;6.07;;
70549;SDS011;58101;48.658;2.328;2024-01-15T10:11:33;19.13;;;6.50;;
70549;SDS011;58101;48.658;2.328;2024-01-15T10:13:59;24.83;;;7.05;;
70549;SDS011;58101;48.658;2.328;2024-01-15T10:16:25;18.58;;;6.13;;
70549;SDS011;58101;48.658;2.328;2024-01-15T10:18:51;17.83;;;6.30;;
70549;SDS011;58101;48.658;2.328;2024-01-15T10:21:17;20.38;;;6.70;;
70549;SDS011;58101;48.658;2.328;2024-01-15T10:23:42;16.05;;;5.97;;
70549;SDS011;58101;48.658;2.328;2024-01-15T10:26:09;16.45;;;6.18;;
70549;SDS011;58101;48.658;2.328;2024-01-15T10:28:36;16.60;;;5.68;;
70549;SDS011;58101;48.658;2.328;2024-01-15T10:31:03;16.52;;;6.22;;
70549;SDS011;58101;48.658;2.328;2024-01-15T10:33:30;17.52;;;5.93;;
70549;SDS011;58101;48.658;2.328;2024-01-15T10:35:56;17.55;;;5.95;;
70549;SDS011;58101;48.658;2.328;2024-01-15T10:38:23;18.20;;;6.72;;
70549;SDS011;58101;48.658;2.328;2024-01-15T10:43:19;13.90;;;5.57;;
70549;SDS011;58101;48.658;2.328;2024-01-15T10:45:45;16.40;;;5.95;;
70549;SDS011;58101;48.658;2.328;2024-01-15T10:50:37;11.63;;;5.35;;
70549;SDS011;58101;48.658;2.328;2024-01-15T10:53:03;12.82;;;5.10;;
70549;SDS011;58101;48.658;2.328;2024-01-15T10:55:29;14.07;;;5.07;;
70549;SDS011;58101;48.658;2.328;2024-01-15T10:57:57;12.82;;;5.38;;
70549;SDS011;58101;48.658;2.328;2024-01-15T11:02:50;12.13;;;5.45;;
70549;SDS011;58101;48.658;2.328;2024-01-15T11:05:16;11.60;;;4.95;;
70549;SDS011;58101;48.658;2.328;2024-01-15T11:07:47;9.75;;;4.38;;
70549;SDS011;58101;48.658;2.328;2024-01-15T11:13:39;9.10;;;3.90;;
70549;SDS011;58101;48.658;2.328;2024-01-15T11:16:06;8.43;;;3.47;;
70549;SDS011;58101;48.658;2.328;2024-01-15T11:18:36;8.93;;;3.50;;
70549;SDS011;58101;48.658;2.328;2024-01-15T11:28:57;7.53;;;2.60;;
70549;SDS011;58101;48.658;2.328;2024-01-15T11:34:06;7.65;;;2.63;;
70549;SDS011;58101;48.658;2.328;2024-01-15T11:37:15;6.93;;;2.65;;
70549;SDS011;58101;48.658;2.328;2024-01-15T11:42:02;7.28;;;2.13;;
70549;SDS011;58101;48.658;2.328;2024-01-15T11:44:29;7.30;;;1.92;;
70549;SDS011;58101;48.658;2.328;2024-01-15T11:47:02;6.20;;;1.80;;
70549;SDS011;58101;48.658;2.328;2024-01-15T11:52:36;6.07;;;1.73;;
70549;SDS011;58101;48.658;2.328;2024-01-15T11:55:10;7.32;;;1.90;;
70549;SDS011;58101;48.658;2.328;2024-01-15T12:00:08;6.72;;;1.83;;
70549;SDS011;58101;48.658;2.328;2024-01-15T12:02:36;6.63;;;1.90;;
70549;SDS011;58101;48.658;2.328;2024-01-15T12:05:01;6.00;;;1.88;;
70549;SDS011;58101;48.658;2.328;2024-01-15T12:07:28;7.38;;;2.17;;
70549;SDS011;58101;48.658;2.328;2024-01-15T12:09:53;6.75;;;1.80;;
70549;SDS011;58101;48.658;2.328;2024-01-15T12:12:22;5.70;;;1.70;;
70549;SDS011;58101;48.658;2.328;2024-01-15T12:15:02;5.25;;;1.75;;
70549;SDS011;58101;48.658;2.328;2024-01-15T12:17:28;6.22;;;1.70;;
70549;SDS011;58101;48.658;2.328;2024-01-15T12:19:54;5.03;;;1.40;;
70549;SDS011;58101;48.658;2.328;2024-01-15T12:22:21;6.35;;;1.70;;
70549;SDS011;58101;48.658;2.328;2024-01-15T12:24:47;6.03;;;1.40;;
70549;SDS011;58101;48.658;2.328;2024-01-15T12:27:12;5.32;;;1.25;;
70549;SDS011;58101;48.658;2.328;2024-01-15T12:29:38;6.30;;;1.60;;
70549;SDS011;58101;48.658;2.328;2024-01-15T12:32:04;9.00;;;3.40;;
70549;SDS011;58101;48.658;2.328;2024-01-15T12:34:30;10.80;;;4.53;;
70549;SDS011;58101;48.658;2.328;2024-01-15T12:36:57;7.75;;;2.03;;
70549;SDS011;58101;48.658;2.328;2024-01-15T12:39:24;11.13;;;4.75;;
70549;SDS011;58101;48.658;2.328;2024-01-15T12:41:50;12.23;;;4.05;;
70549;SDS011;58101;48.658;2.328;2024-01-15T12:44:16;10.43;;;3.17;;
70549;SDS011;58101;48.658;2.328;2024-01-15T12:46:42;14.25;;;4.95;;
70549;SDS011;58101;48.658;2.328;2024-01-15T12:49:08;12.77;;;3.88;;
70549;SDS011;58101;48.658;2.328;2024-01-15T12:51:36;12.32;;;3.92;;
70549;SDS011;58101;48.658;2.328;2024-01-15T12:54:03;9.45;;;2.60;;
70549;SDS011;58101;48.658;2.328;2024-01-15T12:56:29;11.13;;;3.85;;
70549;SDS011;58101;48.658;2.328;2024-01-15T12:58:55;12.93;;;4.05;;
70549;SDS011;58101;48.658;2.328;2024-01-15T13:01:21;9.82;;;2.85;;
70549;SDS011;58101;48.658;2.328;2024-01-15T13:03:47;5.35;;;1.40;;
70549;SDS011;58101;48.658;2.328;2024-01-15T13:06:12;7.40;;;2.30;;
70549;SDS011;58101;48.658;2.328;2024-01-15T13:08:38;8.02;;;3.10;;
70549;SDS011;58101;48.658;2.328;2024-01-15T13:11:03;7.68;;;1.95;;
70549;SDS011;58101;48.658;2.328;2024-01-15T13:13:30;5.85;;;1.60;;
70549;SDS011;58101;48.658;2.328;2024-01-15T13:15:57;6.68;;;2.22;;
70549;SDS011;58101;48.658;2.328;2024-01-15T13:18:23;7.65;;;1.80;;
70549;SDS011;58101;48.658;2.328;2024-01-15T13:20:48;6.65;;;1.70;;
70549;SDS011;58101;48.658;2.328;2024-01-15T13:23:14;8.57;;;2.10;;
70549;SDS011;58101;48.658;2.328;2024-01-15T13:25:40;6.00;;;1.65;;
70549;SDS011;58101;48.658;2.328;2024-01-15T13:28:06;8.00;;;1.30;;
70549;SDS011;58101;48.658;2.328;2024-01-15T13:30:32;5.18;;;1.50;;
70549;SDS011;58101;48.658;2.328;2024-01-15T13:32:58;6.53;;;1.98;;
70549;SDS011;58101;48.658;2.328;2024-01-15T13:35:29;5.93;;;1.50;;
70549;SDS011;58101;48.658;2.328;2024-01-15T13:37:54;7.30;;;2.17;;
70549;SDS011;58101;48.658;2.328;2024-01-15T13:40:20;7.20;;;1.88;;
70549;SDS011;58101;48.658;2.328;2024-01-15T13:42:46;5.65;;;1.15;;
70549;SDS011;58101;48.658;2.328;2024-01-15T13:45:12;3.97;;;1.08;;
70549;SDS011;58101;48.658;2.328;2024-01-15T13:47:39;9.27;;;1.77;;
70549;SDS011;58101;48.658;2.328;2024-01-15T13:50:06;8.73;;;2.10;;
70549;SDS011;58101;48.658;2.328;2024-01-15T13:52:32;8.68;;;2.05;;
70549;SDS011;58101;48.658;2.328;2024-01-15T13:54:57;5.32;;;1.50;;
70549;SDS011;58101;48.658;2.328;2024-01-15T13:57:23;8.10;;;2.35;;
70549;SDS011;58101;48.658;2.328;2024-01-15T13:59:49;10.40;;;2.40;;
70549;SDS011;58101;48.658;2.328;2024-01-15T14:02:14;5.18;;;1.50;;
70549;SDS011;58101;48.658;2.328;2024-01-15T14:04:40;7.05;;;1.80;;
70549;SDS011;58101;48.658;2.328;2024-01-15T14:07:08;7.10;;;1.80;;
70549;SDS011;58101;48.658;2.328;2024-01-15T14:09:34;9.15;;;2.50;;
70549;SDS011;58101;48.658;2.328;2024-01-15T14:12:00;6.75;;;1.60;;
70549;SDS011;58101;48.658;2.328;2024-01-15T14:14:25;8.48;;;2.60;;
70549;SDS011;58101;48.658;2.328;2024-01-15T14:16:51;8.80;;;2.15;;
70549;SDS011;58101;48.658;2.328;2024-01-15T14:19:16;7.03;;;1.63;;
70549;SDS011;58101;48.658;2.328;2024-01-15T14:21:43;8.65;;;2.28;;
70549;SDS011;58101;48.658;2.328;2024-01-15T14:24:08;6.13;;;1.80;;
70549;SDS011;58101;48.658;2.328;2024-01-15T14:26:34;12.38;;;4.03;;
70549;SDS011;58101;48.658;2.328;2024-01-15T14:29:00;13.60;;;4.18;;
70549;SDS011;58101;48.658;2.328;2024-01-15T14:31:25;7.75;;;2.05;;
70549;SDS011;58101;48.658;2.328;2024-01-15T14:33:54;8.38;;;2.30;;
70549;SDS011;58101;48.658;2.328;2024-01-15T14:36:20;17.08;;;5.07;;
70549;SDS011;58101;48.658;2.328;2024-01-15T14:38:46;8.95;;;3.10;;
70549;SDS011;58101;48.658;2.328;2024-01-15T14:41:11;8.52;;;3.42;;
70549;SDS011;58101;48.658;2.328;2024-01-15T14:43:37;8.88;;;2.97;;
70549;SDS011;58101;48.658;2.328;2024-01-15T14:46:02;9.27;;;3.30;;
70549;SDS011;58101;48.658;2.328;2024-01-15T14:48:28;9.75;;;3.20;;
70549;SDS011;58101;48.658;2.328;2024-01-15T14:50:54;8.82;;;3.38;;
70549;SDS011;58101;48.658;2.328;2024-01-15T14:53:20;6.93;;;1.90;;
70549;SDS011;58101;48.658;2.328;2024-01-15T14:55:46;6.35;;;2.63;;
70549;SDS011;58101;48.658;2.328;2024-01-15T14:58:12;7.60;;;2.50;;
70549;SDS011;58101;48.658;2.328;2024-01-15T15:00:37;7.10;;;2.85;;